»·PEaware :: N814VM KPOC-P20

N814VM :: KPOC-P20

FLIGHT INFORMATION

Flight Status: Arrived
Operator: Privately registered:
United States
More flights under this callsign
Pilot: Vin D. (5666)
Aircraft: BEECH AIRCRAFT BARON
(BE58)
More flights by this aircraft type
Origin: KPOC Brackett
United States
Destination: P20 Avi Suquilla
United States
More flights between these airports :: More routes between these airports
Route: TNP
File this flight plan on PilotEdge
Remarks:
Altitude:
(Current/Filed)
7,500ft
Speed:
(Current/Filed)
170kts
Departed: 05-Nov-23 03:06 PM
Arrived: 05-Nov-23 04:04 PM
Distance/Time
Traveled:
174nm/0:58
Distance/Time
To Go:
Arrived

Flight Plot

Page will automatically refresh every two minutes.

Flight plan parsing failed; only flown route is shown


Map Options




Map Legend


Flown Route
Filed Route
Departure Airport
Arrival Airport
Navaid (VOR, NDB)
Fix

Horizontal Profiles

Position Reports

Time Latitude Longitude Heading Altitude Ground
Speed
05-Nov-23 15:00 34.089921 -117.783113 176 1002ft 0kts
05-Nov-23 15:01 34.089921 -117.783113 176 1001ft 0kts
05-Nov-23 15:02 34.089921 -117.783113 176 1001ft 0kts
05-Nov-23 15:03 34.090626 -117.781851 90 1003ft 17kts
05-Nov-23 15:04 34.090270 -117.775215 93 1020ft 14kts
05-Nov-23 15:05 34.090471 -117.774645 3 1023ft 0kts
05-Nov-23 15:06 34.091298 -117.781879 272 1055ft 90kts
05-Nov-23 15:07 34.100890 -117.815812 355 1708ft 147kts
05-Nov-23 15:08 34.112522 -117.778544 86 2435ft 136kts
05-Nov-23 15:09 34.116328 -117.728064 79 2963ft 169kts
05-Nov-23 15:10 34.133052 -117.672112 65 3923ft 181kts
05-Nov-23 15:11 34.149083 -117.615123 88 4904ft 178kts
05-Nov-23 15:12 34.148549 -117.555354 97 5830ft 177kts
05-Nov-23 15:13 34.139742 -117.496945 102 6784ft 176kts
05-Nov-23 15:14 34.131434 -117.438115 102 7504ft 188kts
05-Nov-23 15:15 34.120973 -117.372123 102 7516ft 206kts
05-Nov-23 15:16 34.109848 -117.303692 104 7522ft 208kts
05-Nov-23 15:17 34.089777 -117.240384 113 7839ft 196kts
05-Nov-23 15:18 34.070135 -117.180015 113 8309ft 192kts
05-Nov-23 15:19 34.052014 -117.119389 111 8800ft 191kts
05-Nov-23 15:19 34.036978 -117.068778 111 9216ft 193kts
05-Nov-23 15:21 34.014613 -116.997393 112 9517ft 203kts
05-Nov-23 15:22 33.993897 -116.932623 112 9524ft 208kts
05-Nov-23 15:23 33.974195 -116.866211 110 9518ft 212kts
05-Nov-23 15:24 33.983706 -116.798110 65 9479ft 210kts
05-Nov-23 15:24 34.003221 -116.743116 65 9482ft 217kts
05-Nov-23 15:25 34.026738 -116.676782 65 9475ft 213kts
05-Nov-23 15:27 34.061360 -116.607408 53 9479ft 204kts
05-Nov-23 15:28 34.078578 -116.542375 87 9479ft 207kts
05-Nov-23 15:29 34.081634 -116.472555 87 9476ft 210kts
05-Nov-23 15:29 34.084214 -116.413665 88 9472ft 209kts
05-Nov-23 15:30 34.087247 -116.343645 87 9517ft 210kts
05-Nov-23 15:31 34.090338 -116.273222 87 9532ft 209kts
05-Nov-23 15:32 34.093335 -116.203272 87 9537ft 209kts
05-Nov-23 15:34 34.096925 -116.122154 88 9538ft 207kts
05-Nov-23 15:34 34.099431 -116.064137 87 9532ft 207kts
05-Nov-23 15:35 34.102420 -115.994765 87 9526ft 207kts
05-Nov-23 15:36 34.105440 -115.925478 87 9514ft 207kts
05-Nov-23 15:37 34.108410 -115.857387 87 9499ft 206kts
05-Nov-23 15:38 34.111657 -115.786967 87 9481ft 206kts
05-Nov-23 15:39 34.115081 -115.717842 89 9479ft 206kts
05-Nov-23 15:40 34.114321 -115.648905 93 9480ft 205kts
05-Nov-23 15:41 34.112384 -115.579854 93 9476ft 205kts
05-Nov-23 15:42 34.110421 -115.510665 93 9472ft 206kts
05-Nov-23 15:43 34.108411 -115.438903 93 9011ft 218kts
05-Nov-23 15:44 34.106209 -115.366055 93 8342ft 215kts
05-Nov-23 15:45 34.105262 -115.294513 87 7666ft 214kts
05-Nov-23 15:46 34.105799 -115.223673 90 7196ft 210kts
05-Nov-23 15:47 34.105464 -115.153746 91 6803ft 206kts
05-Nov-23 15:48 34.105043 -115.083198 91 6509ft 214kts
05-Nov-23 15:49 34.104593 -115.011839 91 6230ft 216kts
05-Nov-23 15:50 34.104077 -114.938409 91 5931ft 216kts
05-Nov-23 15:51 34.103537 -114.866486 91 5637ft 216kts
05-Nov-23 15:52 34.102928 -114.793329 92 5383ft 213kts
05-Nov-23 15:53 34.102319 -114.722502 92 5376ft 209kts
05-Nov-23 15:54 34.105602 -114.652442 83 5298ft 213kts
05-Nov-23 15:55 34.114051 -114.580880 83 4914ft 217kts
05-Nov-23 15:56 34.122567 -114.509492 84 4579ft 200kts
05-Nov-23 15:57 34.129642 -114.449645 84 3889ft 162kts
05-Nov-23 15:58 34.135716 -114.398108 85 2990ft 147kts
05-Nov-23 15:59 34.140145 -114.353221 105 2272ft 114kts
05-Nov-23 16:00 34.125327 -114.320851 123 1322ft 109kts
05-Nov-23 16:01 34.121057 -114.287193 49 922ft 117kts
05-Nov-23 16:02 34.146760 -114.269691 25 467ft 57kts
05-Nov-23 16:03 34.151993 -114.269755 299 474ft 27kts
05-Nov-23 16:04 34.152298 -114.271959 141 471ft 0kts

Navigation Log

Ident Type
Flight plan parsing failed, navigation log unavailable